sensor_id;sensor_type;location;lat;lon;timestamp;pressure;altitude;pressure_sealevel;temperature;humidity
32933;BME280;19444;50.518;10.870;2023-04-25T00:00:57;95715.84;;;9.17;100.00
32933;BME280;19444;50.518;10.870;2023-04-25T00:03:54;95708.56;;;9.44;100.00
32933;BME280;19444;50.518;10.870;2023-04-25T00:06:53;95716.50;;;8.62;100.00
32933;BME280;19444;50.518;10.870;2023-04-25T00:09:50;95718.88;;;8.90;100.00
32933;BME280;19444;50.518;10.870;2023-04-25T00:12:47;95710.06;;;8.98;100.00
32933;BME280;19444;50.518;10.870;2023-04-25T00:15:45;95710.38;;;8.70;100.00
32933;BME280;19444;50.518;10.870;2023-04-25T00:18:42;95710.66;;;9.03;100.00
32933;BME280;19444;50.518;10.870;2023-04-25T00:21:39;95710.84;;;8.98;100.00
32933;BME280;19444;50.518;10.870;2023-04-25T00:24:43;95709.56;;;8.96;100.00
32933;BME280;19444;50.518;10.870;2023-04-25T00:27:40;95718.69;;;8.77;100.00
32933;BME280;19444;50.518;10.870;2023-04-25T00:30:39;95722.16;;;8.43;100.00
32933;BME280;19444;50.518;10.870;2023-04-25T00:33:36;95708.63;;;9.00;100.00
32933;BME280;19444;50.518;10.870;2023-04-25T00:36:34;95716.34;;;8.84;100.00
32933;BME280;19444;50.518;10.870;2023-04-25T00:39:31;95707.22;;;9.03;100.00
32933;BME280;19444;50.518;10.870;2023-04-25T00:42:28;95701.38;;;9.09;100.00
32933;BME280;19444;50.518;10.870;2023-04-25T00:45:30;95705.56;;;9.45;100.00
32933;BME280;19444;50.518;10.870;2023-04-25T00:48:27;95709.28;;;8.97;100.00
32933;BME280;19444;50.518;10.870;2023-04-25T00:51:24;95697.59;;;9.19;100.00
32933;BME280;19444;50.518;10.870;2023-04-25T00:54:22;95704.41;;;8.99;100.00
32933;BME280;19444;50.518;10.870;2023-04-25T00:57:19;95705.00;;;9.13;100.00
32933;BME280;19444;50.518;10.870;2023-04-25T01:00:17;95699.69;;;8.96;100.00
32933;BME280;19444;50.518;10.870;2023-04-25T01:03:15;95697.47;;;8.98;100.00
32933;BME280;19444;50.518;10.870;2023-04-25T01:06:17;95691.19;;;8.94;100.00
32933;BME280;19444;50.518;10.870;2023-04-25T01:09:14;95695.06;;;9.23;100.00
32933;BME280;19444;50.518;10.870;2023-04-25T01:12:11;95699.34;;;9.15;100.00
32933;BME280;19444;50.518;10.870;2023-04-25T01:15:09;95696.22;;;8.96;100.00
32933;BME280;19444;50.518;10.870;2023-04-25T01:18:06;95700.13;;;9.24;100.00
32933;BME280;19444;50.518;10.870;2023-04-25T01:21:11;95696.06;;;8.92;100.00
32933;BME280;19444;50.518;10.870;2023-04-25T01:24:08;95690.84;;;8.96;100.00
32933;BME280;19444;50.518;10.870;2023-04-25T01:27:05;95682.81;;;9.13;100.00
32933;BME280;19444;50.518;10.870;2023-04-25T01:30:04;95683.94;;;9.03;100.00
32933;BME280;19444;50.518;10.870;2023-04-25T01:33:01;95690.84;;;8.96;100.00
32933;BME280;19444;50.518;10.870;2023-04-25T01:35:59;95675.63;;;8.96;100.00
32933;BME280;19444;50.518;10.870;2023-04-25T01:38:56;95671.88;;;8.97;100.00
32933;BME280;19444;50.518;10.870;2023-04-25T01:41:54;95674.66;;;9.09;100.00
32933;BME280;19444;50.518;10.870;2023-04-25T01:44:53;95669.44;;;9.22;100.00
32933;BME280;19444;50.518;10.870;2023-04-25T01:47:50;95672.59;;;9.24;100.00
32933;BME280;19444;50.518;10.870;2023-04-25T01:50:47;95667.53;;;9.31;100.00
32933;BME280;19444;50.518;10.870;2023-04-25T01:53:44;95664.38;;;9.37;100.00
32933;BME280;19444;50.518;10.870;2023-04-25T01:56:41;95665.88;;;9.00;100.00
32933;BME280;19444;50.518;10.870;2023-04-25T01:59:38;95670.25;;;9.05;100.00
32933;BME280;19444;50.518;10.870;2023-04-25T02:02:35;95671.03;;;9.14;100.00
32933;BME280;19444;50.518;10.870;2023-04-25T02:05:39;95668.81;;;9.25;100.00
32933;BME280;19444;50.518;10.870;2023-04-25T02:08:36;95675.53;;;9.31;100.00
32933;BME280;19444;50.518;10.870;2023-04-25T02:11:34;95665.50;;;9.28;100.00
32933;BME280;19444;50.518;10.870;2023-04-25T02:14:31;95672.00;;;8.92;100.00
32933;BME280;19444;50.518;10.870;2023-04-25T02:17:28;95661.94;;;9.15;100.00
32933;BME280;19444;50.518;10.870;2023-04-25T02:20:25;95653.75;;;9.58;100.00
32933;BME280;19444;50.518;10.870;2023-04-25T02:23:22;95665.97;;;9.30;100.00
32933;BME280;19444;50.518;10.870;2023-04-25T02:26:19;95668.06;;;9.16;100.00
32933;BME280;19444;50.518;10.870;2023-04-25T02:29:16;95664.59;;;9.15;100.00
32933;BME280;19444;50.518;10.870;2023-04-25T02:32:13;95668.94;;;9.37;100.00
32933;BME280;19444;50.518;10.870;2023-04-25T02:35:10;95677.63;;;9.25;100.00
32933;BME280;19444;50.518;10.870;2023-04-25T02:38:07;95672.09;;;9.30;100.00
32933;BME280;19444;50.518;10.870;2023-04-25T02:41:04;95670.09;;;9.19;100.00
32933;BME280;19444;50.518;10.870;2023-04-25T02:44:01;95682.59;;;7.88;100.00
32933;BME280;19444;50.518;10.870;2023-04-25T02:46:57;95684.16;;;7.41;100.00
32933;BME280;19444;50.518;10.870;2023-04-25T02:49:54;95677.81;;;7.28;100.00
32933;BME280;19444;50.518;10.870;2023-04-25T02:52:51;95681.66;;;7.13;100.00
32933;BME280;19444;50.518;10.870;2023-04-25T02:55:48;95679.91;;;7.40;100.00
32933;BME280;19444;50.518;10.870;2023-04-25T02:58:45;95675.66;;;7.08;100.00
32933;BME280;19444;50.518;10.870;2023-04-25T03:01:42;95676.81;;;7.16;100.00
32933;BME280;19444;50.518;10.870;2023-04-25T03:04:39;95670.31;;;7.39;100.00
32933;BME280;19444;50.518;10.870;2023-04-25T03:07:36;95667.34;;;7.40;100.00
32933;BME280;19444;50.518;10.870;2023-04-25T03:10:33;95658.13;;;8.04;100.00
32933;BME280;19444;50.518;10.870;2023-04-25T03:13:30;95655.16;;;7.96;100.00
32933;BME280;19444;50.518;10.870;2023-04-25T03:16:27;95658.00;;;8.09;100.00
32933;BME280;19444;50.518;10.870;2023-04-25T03:19:24;95659.44;;;7.66;100.00
32933;BME280;19444;50.518;10.870;2023-04-25T03:22:21;95655.34;;;7.21;100.00
32933;BME280;19444;50.518;10.870;2023-04-25T03:25:18;95660.31;;;7.45;100.00
32933;BME280;19444;50.518;10.870;2023-04-25T03:28:15;95659.78;;;7.65;100.00
32933;BME280;19444;50.518;10.870;2023-04-25T03:31:12;95657.66;;;7.93;100.00
32933;BME280;19444;50.518;10.870;2023-04-25T03:34:09;95658.44;;;7.93;100.00
32933;BME280;19444;50.518;10.870;2023-04-25T03:37:06;95666.94;;;7.56;100.00
32933;BME280;19444;50.518;10.870;2023-04-25T03:40:04;95659.63;;;7.61;100.00
32933;BME280;19444;50.518;10.870;2023-04-25T03:43:01;95676.28;;;7.84;100.00
32933;BME280;19444;50.518;10.870;2023-04-25T03:45:58;95669.22;;;7.71;100.00
32933;BME280;19444;50.518;10.870;2023-04-25T03:48:55;95666.75;;;7.44;100.00
32933;BME280;19444;50.518;10.870;2023-04-25T03:51:52;95669.16;;;7.54;100.00
32933;BME280;19444;50.518;10.870;2023-04-25T03:54:49;95663.56;;;7.73;100.00
32933;BME280;19444;50.518;10.870;2023-04-25T03:57:46;95660.59;;;7.83;100.00
32933;BME280;19444;50.518;10.870;2023-04-25T04:00:43;95672.28;;;7.56;100.00
32933;BME280;19444;50.518;10.870;2023-04-25T04:03:40;95676.63;;;7.43;100.00
32933;BME280;19444;50.518;10.870;2023-04-25T04:06:37;95675.25;;;7.54;100.00
32933;BME280;19444;50.518;10.870;2023-04-25T04:09:34;95674.66;;;7.66;100.00
32933;BME280;19444;50.518;10.870;2023-04-25T04:12:31;95672.47;;;7.59;100.00
32933;BME280;19444;50.518;10.870;2023-04-25T04:15:28;95670.84;;;7.50;100.00
32933;BME280;19444;50.518;10.870;2023-04-25T04:18:25;95681.03;;;7.87;100.00
32933;BME280;19444;50.518;10.870;2023-04-25T04:21:22;95677.53;;;7.69;100.00
32933;BME280;19444;50.518;10.870;2023-04-25T04:24:19;95684.66;;;7.52;100.00
32933;BME280;19444;50.518;10.870;2023-04-25T04:27:18;95677.09;;;7.45;100.00
32933;BME280;19444;50.518;10.870;2023-04-25T04:30:16;95680.97;;;7.70;100.00
32933;BME280;19444;50.518;10.870;2023-04-25T04:33:13;95683.50;;;7.84;100.00
32933;BME280;19444;50.518;10.870;2023-04-25T04:36:12;95681.34;;;7.46;100.00
32933;BME280;19444;50.518;10.870;2023-04-25T04:39:08;95676.78;;;7.47;100.00
32933;BME280;19444;50.518;10.870;2023-04-25T04:42:06;95677.34;;;7.66;100.00
32933;BME280;19444;50.518;10.870;2023-04-25T04:45:03;95681.06;;;7.96;100.00
32933;BME280;19444;50.518;10.870;2023-04-25T04:48:00;95684.75;;;7.69;100.00
32933;BME280;19444;50.518;10.870;2023-04-25T04:50:57;95673.84;;;7.96;100.00
32933;BME280;19444;50.518;10.870;2023-04-25T04:53:54;95684.75;;;7.69;100.00
32933;BME280;19444;50.518;10.870;2023-04-25T04:56:55;95684.78;;;7.47;100.00
32933;BME280;19444;50.518;10.870;2023-04-25T04:59:52;95691.97;;;7.68;100.00
32933;BME280;19444;50.518;10.870;2023-04-25T05:02:49;95692.31;;;7.45;100.00
32933;BME280;19444;50.518;10.870;2023-04-25T05:05:47;95690.44;;;7.45;100.00
32933;BME280;19444;50.518;10.870;2023-04-25T05:08:43;95699.88;;;7.51;100.00
32933;BME280;19444;50.518;10.870;2023-04-25T05:11:40;95706.97;;;7.64;100.00
32933;BME280;19444;50.518;10.870;2023-04-25T05:14:37;95701.41;;;6.90;100.00
32933;BME280;19444;50.518;10.870;2023-04-25T05:17:34;95711.84;;;7.31;100.00
32933;BME280;19444;50.518;10.870;2023-04-25T05:20:31;95712.66;;;7.40;100.00
32933;BME280;19444;50.518;10.870;2023-04-25T05:23:28;95703.56;;;7.10;100.00
32933;BME280;19444;50.518;10.870;2023-04-25T05:26:28;95708.78;;;7.78;100.00
32933;BME280;19444;50.518;10.870;2023-04-25T05:29:27;95701.72;;;8.39;100.00
32933;BME280;19444;50.518;10.870;2023-04-25T05:32:24;95709.38;;;8.23;100.00
32933;BME280;19444;50.518;10.870;2023-04-25T05:35:22;95709.69;;;8.30;100.00
32933;BME280;19444;50.518;10.870;2023-04-25T05:38:18;95714.75;;;7.83;100.00
32933;BME280;19444;50.518;10.870;2023-04-25T05:41:15;95720.53;;;7.85;100.00
32933;BME280;19444;50.518;10.870;2023-04-25T05:44:12;95712.81;;;8.23;100.00
32933;BME280;19444;50.518;10.870;2023-04-25T05:47:09;95723.97;;;7.77;100.00
32933;BME280;19444;50.518;10.870;2023-04-25T05:50:07;95725.34;;;7.66;100.00
32933;BME280;19444;50.518;10.870;2023-04-25T05:53:05;95727.59;;;7.41;100.00
32933;BME280;19444;50.518;10.870;2023-04-25T05:56:02;95726.63;;;7.37;100.00
32933;BME280;19444;50.518;10.870;2023-04-25T05:58:59;95722.09;;;7.78;100.00
32933;BME280;19444;50.518;10.870;2023-04-25T06:01:56;95728.50;;;7.77;100.00
32933;BME280;19444;50.518;10.870;2023-04-25T06:04:53;95726.44;;;7.11;100.00
32933;BME280;19444;50.518;10.870;2023-04-25T06:07:50;95727.91;;;7.49;100.00
32933;BME280;19444;50.518;10.870;2023-04-25T06:10:47;95733.72;;;7.82;100.00
32933;BME280;19444;50.518;10.870;2023-04-25T06:13:44;95733.25;;;7.80;100.00
32933;BME280;19444;50.518;10.870;2023-04-25T06:16:41;95749.97;;;7.32;100.00
32933;BME280;19444;50.518;10.870;2023-04-25T06:19:38;95750.44;;;8.13;100.00
32933;BME280;19444;50.518;10.870;2023-04-25T06:22:35;95749.03;;;7.67;100.00
32933;BME280;19444;50.518;10.870;2023-04-25T06:25:32;95747.41;;;7.89;100.00
32933;BME280;19444;50.518;10.870;2023-04-25T06:28:29;95752.63;;;8.42;100.00
32933;BME280;19444;50.518;10.870;2023-04-25T06:31:26;95750.44;;;8.13;100.00
32933;BME280;19444;50.518;10.870;2023-04-25T06:34:23;95763.19;;;7.77;100.00
32933;BME280;19444;50.518;10.870;2023-04-25T06:37:20;95756.41;;;8.10;100.00
32933;BME280;19444;50.518;10.870;2023-04-25T06:40:16;95756.88;;;8.52;100.00
32933;BME280;19444;50.518;10.870;2023-04-25T06:43:14;95756.72;;;8.57;100.00
32933;BME280;19444;50.518;10.870;2023-04-25T06:46:11;95763.50;;;8.89;100.00
32933;BME280;19444;50.518;10.870;2023-04-25T06:49:08;95763.97;;;7.77;100.00
32933;BME280;19444;50.518;10.870;2023-04-25T06:52:05;95771.09;;;7.90;100.00
32933;BME280;19444;50.518;10.870;2023-04-25T06:55:02;95769.56;;;7.98;100.00
32933;BME280;19444;50.518;10.870;2023-04-25T06:57:59;95775.22;;;8.45;100.00
32933;BME280;19444;50.518;10.870;2023-04-25T07:00:56;95776.94;;;8.41;100.00
32933;BME280;19444;50.518;10.870;2023-04-25T07:03:53;95772.94;;;7.81;100.00
32933;BME280;19444;50.518;10.870;2023-04-25T07:06:50;95779.34;;;8.11;100.00
32933;BME280;19444;50.518;10.870;2023-04-25T07:09:47;95778.06;;;8.57;100.00
32933;BME280;19444;50.518;10.870;2023-04-25T07:12:44;95763.75;;;9.39;100.00
32933;BME280;19444;50.518;10.870;2023-04-25T07:15:41;95773.25;;;9.02;100.00
32933;BME280;19444;50.518;10.870;2023-04-25T07:18:38;95768.13;;;9.70;100.00
32933;BME280;19444;50.518;10.870;2023-04-25T07:21:35;95776.22;;;8.92;100.00
32933;BME280;19444;50.518;10.870;2023-04-25T07:24:33;95783.75;;;8.16;100.00
32933;BME280;19444;50.518;10.870;2023-04-25T07:27:30;95776.94;;;8.41;100.00
32933;BME280;19444;50.518;10.870;2023-04-25T07:30:27;95781.75;;;8.30;100.00
32933;BME280;19444;50.518;10.870;2023-04-25T07:33:24;95773.19;;;8.02;100.00
32933;BME280;19444;50.518;10.870;2023-04-25T07:36:21;95769.13;;;8.62;100.00
32933;BME280;19444;50.518;10.870;2023-04-25T07:39:18;95776.31;;;8.04;100.00
32933;BME280;19444;50.518;10.870;2023-04-25T07:42:15;95799.06;;;7.62;100.00
32933;BME280;19444;50.518;10.870;2023-04-25T07:45:12;95800.19;;;8.40;100.00
32933;BME280;19444;50.518;10.870;2023-04-25T07:48:09;95800.72;;;8.68;100.00
32933;BME280;19444;50.518;10.870;2023-04-25T07:51:06;95795.31;;;9.81;100.00
32933;BME280;19444;50.518;10.870;2023-04-25T07:54:04;95807.63;;;9.56;100.00
32933;BME280;19444;50.518;10.870;2023-04-25T07:57:02;95802.03;;;9.87;100.00
32933;BME280;19444;50.518;10.870;2023-04-25T07:59:59;95814.69;;;8.65;100.00
32933;BME280;19444;50.518;10.870;2023-04-25T08:02:56;95816.88;;;7.84;100.00
32933;BME280;19444;50.518;10.870;2023-04-25T08:05:53;95833.81;;;7.79;100.00
32933;BME280;19444;50.518;10.870;2023-04-25T08:08:51;95826.47;;;7.85;100.00
32933;BME280;19444;50.518;10.870;2023-04-25T08:11:48;95835.69;;;7.79;100.00
32933;BME280;19444;50.518;10.870;2023-04-25T08:14:45;95823.69;;;8.95;100.00
32933;BME280;19444;50.518;10.870;2023-04-25T08:17:42;95834.19;;;8.74;100.00
32933;BME280;19444;50.518;10.870;2023-04-25T08:20:40;95830.94;;;9.03;100.00
32933;BME280;19444;50.518;10.870;2023-04-25T08:23:38;95844.13;;;8.91;100.00
32933;BME280;19444;50.518;10.870;2023-04-25T08:26:36;95841.81;;;9.07;100.00
32933;BME280;19444;50.518;10.870;2023-04-25T08:29:34;95852.34;;;8.46;100.00
32933;BME280;19444;50.518;10.870;2023-04-25T08:32:31;95844.72;;;8.62;100.00
32933;BME280;19444;50.518;10.870;2023-04-25T08:35:28;95845.88;;;8.39;100.00
32933;BME280;19444;50.518;10.870;2023-04-25T08:38:25;95855.13;;;8.02;100.00
32933;BME280;19444;50.518;10.870;2023-04-25T08:41:23;95858.44;;;8.95;100.00
32933;BME280;19444;50.518;10.870;2023-04-25T08:44:21;95850.13;;;9.23;100.00
32933;BME280;19444;50.518;10.870;2023-04-25T08:47:22;95871.78;;;8.95;100.00
32933;BME280;19444;50.518;10.870;2023-04-25T08:50:20;95861.91;;;9.30;100.00
32933;BME280;19444;50.518;10.870;2023-04-25T08:53:25;95864.88;;;10.45;100.00
32933;BME280;19444;50.518;10.870;2023-04-25T08:56:24;95875.75;;;9.58;100.00
32933;BME280;19444;50.518;10.870;2023-04-25T08:59:22;95879.38;;;9.88;100.00
32933;BME280;19444;50.518;10.870;2023-04-25T09:02:20;95873.72;;;9.29;100.00
32933;BME280;19444;50.518;10.870;2023-04-25T09:05:20;95882.53;;;10.46;100.00
32933;BME280;19444;50.518;10.870;2023-04-25T09:08:17;95871.41;;;10.18;100.00
32933;BME280;19444;50.518;10.870;2023-04-25T09:11:14;95883.16;;;9.35;100.00
32933;BME280;19444;50.518;10.870;2023-04-25T09:14:20;95874.41;;;10.16;100.00
32933;BME280;19444;50.518;10.870;2023-04-25T09:17:18;95872.47;;;11.23;100.00
32933;BME280;19444;50.518;10.870;2023-04-25T09:20:15;95869.09;;;11.34;100.00
32933;BME280;19444;50.518;10.870;2023-04-25T09:23:14;95868.06;;;12.02;96.02
32933;BME280;19444;50.518;10.870;2023-04-25T09:26:18;95876.22;;;11.30;100.00
32933;BME280;19444;50.518;10.870;2023-04-25T09:29:16;95882.13;;;11.45;99.16
32933;BME280;19444;50.518;10.870;2023-04-25T09:32:31;95880.59;;;11.56;96.14
32933;BME280;19444;50.518;10.870;2023-04-25T09:35:28;95881.81;;;12.00;90.05
32933;BME280;19444;50.518;10.870;2023-04-25T09:38:25;95890.63;;;10.96;97.97
32933;BME280;19444;50.518;10.870;2023-04-25T09:41:25;95901.69;;;10.65;100.00
32933;BME280;19444;50.518;10.870;2023-04-25T09:44:25;95906.06;;;10.14;100.00
32933;BME280;19444;50.518;10.870;2023-04-25T09:47:26;95897.22;;;11.07;100.00
32933;BME280;19444;50.518;10.870;2023-04-25T09:50:23;95899.88;;;10.78;100.00
32933;BME280;19444;50.518;10.870;2023-04-25T09:53:21;95898.53;;;11.43;99.79
32933;BME280;19444;50.518;10.870;2023-04-25T09:56:19;95908.06;;;10.43;100.00
32933;BME280;19444;50.518;10.870;2023-04-25T09:59:16;95911.13;;;11.22;100.00
32933;BME280;19444;50.518;10.870;2023-04-25T10:02:23;95925.94;;;9.87;100.00
32933;BME280;19444;50.518;10.870;2023-04-25T10:05:21;95919.44;;;10.14;100.00
32933;BME280;19444;50.518;10.870;2023-04-25T10:08:20;95923.53;;;10.20;100.00
32933;BME280;19444;50.518;10.870;2023-04-25T10:11:17;95922.19;;;9.80;100.00
32933;BME280;19444;50.518;10.870;2023-04-25T10:14:15;95922.81;;;9.68;100.00
32933;BME280;19444;50.518;10.870;2023-04-25T10:17:12;95919.19;;;11.43;100.00
32933;BME280;19444;50.518;10.870;2023-04-25T10:20:10;95913.53;;;11.65;95.94
32933;BME280;19444;50.518;10.870;2023-04-25T10:23:13;95918.75;;;12.61;82.16
32933;BME280;19444;50.518;10.870;2023-04-25T10:26:11;95925.22;;;12.02;94.24
32933;BME280;19444;50.518;10.870;2023-04-25T10:29:09;95921.56;;;12.76;95.19
32933;BME280;19444;50.518;10.870;2023-04-25T10:32:06;95924.13;;;12.48;100.00
32933;BME280;19444;50.518;10.870;2023-04-25T10:35:17;95923.97;;;12.33;84.83
32933;BME280;19444;50.518;10.870;2023-04-25T10:38:14;95926.03;;;12.15;88.53
32933;BME280;19444;50.518;10.870;2023-04-25T10:41:13;95928.97;;;11.68;87.34
32933;BME280;19444;50.518;10.870;2023-04-25T10:44:10;95924.13;;;12.15;91.49
32933;BME280;19444;50.518;10.870;2023-04-25T10:47:08;95925.69;;;12.49;82.80
32933;BME280;19444;50.518;10.870;2023-04-25T10:50:08;95916.56;;;12.99;80.73
32933;BME280;19444;50.518;10.870;2023-04-25T10:53:15;95919.59;;;11.32;94.85
32933;BME280;19444;50.518;10.870;2023-04-25T10:59:18;95947.19;;;9.75;100.00
32933;BME280;19444;50.518;10.870;2023-04-25T11:02:16;95941.44;;;11.22;100.00
32933;BME280;19444;50.518;10.870;2023-04-25T11:05:30;95942.72;;;12.53;91.56
32933;BME280;19444;50.518;10.870;2023-04-25T11:08:50;95931.22;;;13.91;71.86
32933;BME280;19444;50.518;10.870;2023-04-25T11:11:54;95918.75;;;15.91;60.38
32933;BME280;19444;50.518;10.870;2023-04-25T11:14:59;95915.34;;;15.24;56.24
32933;BME280;19444;50.518;10.870;2023-04-25T11:17:57;95903.16;;;16.04;51.08
32933;BME280;19444;50.518;10.870;2023-04-25T11:20:55;95911.03;;;13.45;54.97
32933;BME280;19444;50.518;10.870;2023-04-25T11:23:52;95912.34;;;13.51;57.74
32933;BME280;19444;50.518;10.870;2023-04-25T11:26:50;95914.88;;;12.82;60.03
32933;BME280;19444;50.518;10.870;2023-04-25T11:29:47;95916.66;;;12.91;60.60
32933;BME280;19444;50.518;10.870;2023-04-25T11:32:44;95916.84;;;12.61;65.03
32933;BME280;19444;50.518;10.870;2023-04-25T11:35:42;95914.41;;;12.56;69.30
32933;BME280;19444;50.518;10.870;2023-04-25T11:38:39;95933.09;;;11.15;64.01
32933;BME280;19444;50.518;10.870;2023-04-25T11:41:41;95931.56;;;10.38;63.38
32933;BME280;19444;50.518;10.870;2023-04-25T11:44:41;95940.72;;;10.28;64.84
32933;BME280;19444;50.518;10.870;2023-04-25T11:47:38;95932.81;;;11.79;64.55
32933;BME280;19444;50.518;10.870;2023-04-25T11:50:35;95934.94;;;11.74;63.34
32933;BME280;19444;50.518;10.870;2023-04-25T11:53:35;95947.50;;;12.03;61.94
32933;BME280;19444;50.518;10.870;2023-04-25T11:56:33;95946.97;;;11.47;59.40
32933;BME280;19444;50.518;10.870;2023-04-25T11:59:30;95948.59;;;11.39;56.04
32933;BME280;19444;50.518;10.870;2023-04-25T12:02:27;95961.31;;;12.46;55.25
32933;BME280;19444;50.518;10.870;2023-04-25T12:05:27;95963.53;;;10.90;57.53
32933;BME280;19444;50.518;10.870;2023-04-25T12:08:29;95965.56;;;10.93;57.93
32933;BME280;19444;50.518;10.870;2023-04-25T12:11:26;95966.97;;;10.99;57.17
32933;BME280;19444;50.518;10.870;2023-04-25T12:14:28;95967.75;;;10.99;64.40
32933;BME280;19444;50.518;10.870;2023-04-25T12:17:25;95985.41;;;11.00;63.58
32933;BME280;19444;50.518;10.870;2023-04-25T12:20:25;95977.84;;;10.56;63.33
32933;BME280;19444;50.518;10.870;2023-04-25T12:23:27;95979.22;;;11.08;59.70
32933;BME280;19444;50.518;10.870;2023-04-25T12:26:24;95974.28;;;12.11;69.17
32933;BME280;19444;50.518;10.870;2023-04-25T12:29:23;95978.56;;;11.11;63.28
32933;BME280;19444;50.518;10.870;2023-04-25T12:32:27;95988.97;;;11.13;67.01
32933;BME280;19444;50.518;10.870;2023-04-25T12:35:24;95989.50;;;11.36;61.49
32933;BME280;19444;50.518;10.870;2023-04-25T12:41:22;95987.97;;;10.07;64.85
32933;BME280;19444;50.518;10.870;2023-04-25T12:44:19;95985.66;;;11.66;61.94
32933;BME280;19444;50.518;10.870;2023-04-25T12:47:16;95987.31;;;12.01;61.90
32933;BME280;19444;50.518;10.870;2023-04-25T12:50:13;95988.50;;;11.11;61.12
32933;BME280;19444;50.518;10.870;2023-04-25T12:53:10;95992.47;;;11.05;64.88
32933;BME280;19444;50.518;10.870;2023-04-25T12:56:08;95993.34;;;11.26;77.22
32933;BME280;19444;50.518;10.870;2023-04-25T12:59:05;95996.63;;;11.82;66.57
32933;BME280;19444;50.518;10.870;2023-04-25T13:02:02;95996.81;;;10.89;61.74
32933;BME280;19444;50.518;10.870;2023-04-25T13:04:59;95997.53;;;11.86;64.44
32933;BME280;19444;50.518;10.870;2023-04-25T13:07:56;96001.22;;;11.82;63.77
32933;BME280;19444;50.518;10.870;2023-04-25T13:10:53;96019.44;;;11.08;64.21
32933;BME280;19444;50.518;10.870;2023-04-25T13:13:50;96004.91;;;12.31;59.20
32933;BME280;19444;50.518;10.870;2023-04-25T13:16:48;96016.38;;;10.80;61.09
32933;BME280;19444;50.518;10.870;2023-04-25T13:19:45;96013.47;;;11.91;57.30
32933;BME280;19444;50.518;10.870;2023-04-25T13:22:42;96020.19;;;11.47;55.65
32933;BME280;19444;50.518;10.870;2023-04-25T13:25:39;96019.78;;;11.36;57.09
32933;BME280;19444;50.518;10.870;2023-04-25T13:28:36;96011.44;;;11.59;60.01
32933;BME280;19444;50.518;10.870;2023-04-25T13:31:33;96012.75;;;11.82;55.16
32933;BME280;19444;50.518;10.870;2023-04-25T13:34:30;96018.41;;;11.22;54.09
32933;BME280;19444;50.518;10.870;2023-04-25T13:37:27;96025.91;;;10.52;55.32
32933;BME280;19444;50.518;10.870;2023-04-25T13:40:26;96026.38;;;10.63;60.41
32933;BME280;19444;50.518;10.870;2023-04-25T13:43:24;96019.38;;;12.39;59.20
32933;BME280;19444;50.518;10.870;2023-04-25T13:46:21;96025.84;;;11.84;60.13
32933;BME280;19444;50.518;10.870;2023-04-25T13:49:37;96036.97;;;12.15;60.59
32933;BME280;19444;50.518;10.870;2023-04-25T13:52:34;96026.28;;;11.86;49.57
32933;BME280;19444;50.518;10.870;2023-04-25T13:55:34;96036.94;;;11.74;53.95
32933;BME280;19444;50.518;10.870;2023-04-25T13:58:32;96034.13;;;11.02;49.88
32933;BME280;19444;50.518;10.870;2023-04-25T14:01:29;96041.97;;;10.61;51.02
32933;BME280;19444;50.518;10.870;2023-04-25T14:04:28;96048.47;;;10.25;51.29
32933;BME280;19444;50.518;10.870;2023-04-25T14:07:25;96039.31;;;11.07;50.19
32933;BME280;19444;50.518;10.870;2023-04-25T14:10:22;96034.16;;;11.91;50.97
32933;BME280;19444;50.518;10.870;2023-04-25T14:13:19;96032.16;;;11.50;50.07
32933;BME280;19444;50.518;10.870;2023-04-25T14:16:17;96033.53;;;14.71;44.11
32933;BME280;19444;50.518;10.870;2023-04-25T14:19:14;96012.03;;;15.85;42.30
32933;BME280;19444;50.518;10.870;2023-04-25T14:22:12;96036.38;;;11.89;45.93
32933;BME280;19444;50.518;10.870;2023-04-25T14:25:09;96035.00;;;11.53;48.73
32933;BME280;19444;50.518;10.870;2023-04-25T14:28:06;96037.09;;;11.68;48.38
32933;BME280;19444;50.518;10.870;2023-04-25T14:31:03;96052.09;;;11.02;48.59
32933;BME280;19444;50.518;10.870;2023-04-25T14:34:01;96045.22;;;12.31;49.67
32933;BME280;19444;50.518;10.870;2023-04-25T14:36:58;96055.38;;;10.17;48.82
32933;BME280;19444;50.518;10.870;2023-04-25T14:39:55;96048.97;;;12.18;49.62
32933;BME280;19444;50.518;10.870;2023-04-25T14:42:52;96043.38;;;13.59;43.26
32933;BME280;19444;50.518;10.870;2023-04-25T14:45:49;96042.56;;;13.83;44.74
32933;BME280;19444;50.518;10.870;2023-04-25T14:48:46;96041.47;;;12.44;45.25
32933;BME280;19444;50.518;10.870;2023-04-25T14:51:43;96033.81;;;14.98;39.56
32933;BME280;19444;50.518;10.870;2023-04-25T14:54:41;96052.88;;;12.74;41.51
32933;BME280;19444;50.518;10.870;2023-04-25T14:57:37;96049.41;;;13.31;40.07
32933;BME280;19444;50.518;10.870;2023-04-25T15:00:35;96053.69;;;13.45;42.66
32933;BME280;19444;50.518;10.870;2023-04-25T15:03:34;96067.34;;;12.49;40.97
32933;BME280;19444;50.518;10.870;2023-04-25T15:06:31;96061.06;;;11.06;41.49
32933;BME280;19444;50.518;10.870;2023-04-25T15:09:28;96074.72;;;10.06;43.37
32933;BME280;19444;50.518;10.870;2023-04-25T15:12:25;96078.38;;;10.18;43.45
32933;BME280;19444;50.518;10.870;2023-04-25T15:15:24;96087.66;;;10.12;45.36
32933;BME280;19444;50.518;10.870;2023-04-25T15:18:23;96085.91;;;10.86;42.71
32933;BME280;19444;50.518;10.870;2023-04-25T15:21:20;96082.88;;;11.72;44.71
32933;BME280;19444;50.518;10.870;2023-04-25T15:24:18;96087.44;;;10.95;44.67
32933;BME280;19444;50.518;10.870;2023-04-25T15:27:15;96101.59;;;11.13;42.67
32933;BME280;19444;50.518;10.870;2023-04-25T15:30:13;96109.13;;;10.47;45.14
32933;BME280;19444;50.518;10.870;2023-04-25T15:33:12;96093.34;;;10.71;43.06
32933;BME280;19444;50.518;10.870;2023-04-25T15:36:09;96104.41;;;11.25;42.83